Time;durP1;ratioP1;P1;durP2;ratioP2;P2;SDS_P1;SDS_P2;PMS_P1;PMS_P2;Temp;Humidity;BMP_temperature;BMP_pressure;BME280_temperature;BME280_humidity;BME280_pressure;Samples;Min_cycle;Max_cycle;Signal;HPM_P1;HPM_P2
2021/06/16 00:00:38;;;;;;;6.20;3.87;;;;;;;;;;5682914;23;20466;-92
2021/06/16 00:03:13;;;;;;;3.37;3.27;;;19.10;62.30;;;;;;5001047;28;20413;-90
2021/06/16 00:13:25;;;;;;;4.97;3.73;;;;;;;;;;4976533;28;20482;-91
2021/06/16 00:15:51;;;;;;;4.07;3.67;;;18.90;58.20;;;;;;4944917;29;20442;-91
2021/06/16 00:18:17;;;;;;;2.87;2.83;;;;;;;;;;4960362;29;20466;-90
2021/06/16 00:20:43;;;;;;;3.60;3.40;;;;;;;;;;4958610;29;20426;-91
2021/06/16 00:23:10;;;;;;;3.50;3.40;;;;;;;;;;4943339;29;20419;-92
2021/06/16 00:30:46;;;;;;;4.00;3.90;;;;;;;;;;5793621;23;20473;-92
2021/06/16 00:43:39;;;;;;;3.77;3.50;;;18.50;85.40;;;;;;5130008;23;20480;-90
2021/06/16 00:48:43;;;;;;;4.43;4.13;;;18.30;89.50;;;;;;5905111;23;20504;-89
2021/06/16 00:53:53;;;;;;;4.13;4.03;;;18.30;66.50;;;;;;5436691;23;20472;-90
2021/06/16 00:56:21;;;;;;;3.90;3.80;;;21.10;81.60;;;;;;4981001;28;20432;-92
2021/06/16 01:01:25;;;;;;;4.40;4.13;;;18.20;65.80;;;;;;5244676;23;20474;-92
2021/06/16 01:03:56;;;;;;;4.30;4.10;;;20.40;72.60;;;;;;4961337;29;20411;-90
2021/06/16 01:09:18;;;;;;;4.13;3.80;;;18.10;67.40;;;;;;5293176;23;20543;-91
2021/06/16 01:20:00;;;;;;;7.57;4.40;;;17.90;67.60;;;;;;5352339;23;20631;-92
2021/06/16 01:25:48;;;;;;;3.80;3.70;;;20.90;72.50;;;;;;5128095;23;20474;-90
2021/06/16 01:28:16;;;;;;;5.63;4.27;;;17.90;88.60;;;;;;4957454;29;20450;-92
2021/06/16 01:30:43;;;;;;;5.17;4.37;;;19.80;73.00;;;;;;4956449;29;20408;-92
2021/06/16 01:33:11;;;;;;;4.30;4.10;;;17.70;68.20;;;;;;4958643;29;20515;-91
2021/06/16 01:35:42;;;;;;;4.17;3.77;;;17.70;68.50;;;;;;4933482;29;20474;-90
2021/06/16 01:38:34;;;;;;;5.40;4.60;;;16.80;67.90;;;;;;4921448;29;20994;-92
2021/06/16 01:41:02;;;;;;;16.80;4.90;;;17.70;68.50;;;;;;4921064;29;20443;-91
2021/06/16 01:43:32;;;;;;;4.23;4.13;;;21.10;75.50;;;;;;4938863;29;20458;-92
2021/06/16 01:46:25;;;;;;;4.50;4.27;;;17.60;80.80;;;;;;4939934;29;20415;-91
2021/06/16 01:48:55;;;;;;;4.23;4.03;;;18.40;71.20;;;;;;4927756;29;20444;-91
2021/06/16 01:51:31;;;;;;;5.10;4.60;;;17.80;74.10;;;;;;4923915;29;20459;-91
2021/06/16 01:56:37;;;;;;;4.67;4.03;;;17.60;70.90;;;;;;5324769;23;20487;-89
2021/06/16 01:59:08;;;;;;;3.93;3.83;;;17.60;69.50;;;;;;4958021;29;20434;-90
2021/06/16 02:01:35;;;;;;;4.33;4.07;;;20.40;76.90;;;;;;4957144;29;20431;-89
2021/06/16 02:04:04;;;;;;;4.93;4.40;;;20.10;76.40;;;;;;4955136;29;20411;-92
2021/06/16 02:06:44;;;;;;;4.70;4.47;;;19.00;80.10;;;;;;4952387;29;20416;-92
2021/06/16 02:09:13;;;;;;;4.50;4.33;;;20.30;77.30;;;;;;4957631;29;20411;-91
2021/06/16 02:11:40;;;;;;;4.43;4.13;;;17.40;70.70;;;;;;4939934;29;20467;-91
2021/06/16 02:14:09;;;;;;;4.40;4.17;;;17.40;70.60;;;;;;4934280;29;20447;-91
2021/06/16 02:16:44;;;;;;;4.53;4.30;;;20.10;78.00;;;;;;4956614;29;20399;-91
2021/06/16 02:19:34;;;;;;;4.90;4.53;;;20.50;78.80;;;;;;4939466;29;20418;-89
2021/06/16 02:25:18;;;;;;;4.67;4.27;;;17.20;70.70;;;;;;4959947;29;20440;-90
2021/06/16 02:27:44;;;;;;;5.00;4.60;;;;;;;;;;5526430;23;20490;-91
2021/06/16 02:32:46;;;;;;;4.77;4.60;;;17.40;71.50;;;;;;5344233;23;20482;-91
2021/06/16 02:35:12;;;;;;;5.33;4.87;;;;;;;;;;4956916;29;20502;-91
2021/06/16 02:37:42;;;;;;;5.00;4.60;;;17.40;70.30;;;;;;4942188;29;20435;-91
2021/06/16 02:40:14;;;;;;;4.30;4.10;;;19.00;76.60;;;;;;4958570;29;20423;-92
2021/06/16 02:42:46;;;;;;;5.37;4.93;;;17.50;75.30;;;;;;4942334;29;20772;-90
2021/06/16 02:45:16;;;;;;;4.90;4.70;;;20.20;75.50;;;;;;4942609;29;20443;-91
2021/06/16 02:47:50;;;;;;;5.17;4.87;;;19.90;75.30;;;;;;4957734;29;20447;-91
2021/06/16 02:50:26;;;;;;;4.73;4.53;;;17.20;81.40;;;;;;4954016;23;21324;-90
2021/06/16 02:52:54;;;;;;;4.77;4.50;;;17.90;75.10;;;;;;4974066;28;20480;-91
2021/06/16 02:55:27;;;;;;;5.90;4.83;;;20.20;77.30;;;;;;4974320;28;20441;-90
2021/06/16 02:57:56;;;;;;;4.70;4.27;;;17.40;71.00;;;;;;4961644;28;20406;-90
2021/06/16 03:00:26;;;;;;;4.03;3.83;;;20.40;78.40;;;;;;4974345;28;20438;-91
2021/06/16 03:02:52;;;;;;;4.90;4.43;;;17.50;71.30;;;;;;4977383;28;20406;-92
2021/06/16 03:05:22;;;;;;;8.83;5.33;;;19.30;81.60;;;;;;4967824;28;20422;-90
2021/06/16 03:07:49;;;;;;;4.60;4.30;;;17.30;70.30;;;;;;4973771;28;20504;-90
2021/06/16 03:10:17;;;;;;;4.73;4.43;;;18.80;73.30;;;;;;4974762;28;20410;-88
2021/06/16 03:12:46;;;;;;;6.70;4.80;;;19.20;77.50;;;;;;4974500;28;20481;-91
2021/06/16 03:15:12;;;;;;;5.50;5.13;;;21.80;80.50;;;;;;4974265;28;20757;-89
2021/06/16 03:17:38;;;;;;;5.27;4.77;;;;;;;;;;4962852;29;20445;-91
2021/06/16 03:20:07;;;;;;;6.53;5.47;;;17.50;70.60;;;;;;5279835;23;20486;-91
2021/06/16 03:23:06;;;;;;;5.30;5.10;;;18.30;76.40;;;;;;4929836;29;20439;-91
2021/06/16 03:25:40;;;;;;;5.20;4.97;;;17.50;69.50;;;;;;4938827;29;20430;-91
2021/06/16 03:28:10;;;;;;;6.73;6.30;;;17.40;73.00;;;;;;4960513;29;20431;-89
2021/06/16 03:30:53;;;;;;;6.00;5.50;;;17.30;90.10;;;;;;5084620;23;20474;-92
2021/06/16 03:33:25;;;;;;;6.13;5.73;;;18.30;74.20;;;;;;4981300;28;20545;-91
2021/06/16 03:36:11;;;;;;;6.30;5.77;;;20.00;73.30;;;;;;4962553;29;20427;-90
2021/06/16 03:38:41;;;;;;;5.70;5.30;;;18.70;72.50;;;;;;4960545;29;20481;-90
2021/06/16 03:41:41;;;;;;;5.87;5.47;;;20.00;74.00;;;;;;4953902;29;20422;-91
2021/06/16 03:52:26;;;;;;;5.37;5.07;;;17.30;69.40;;;;;;5030164;23;20473;-91
2021/06/16 03:54:53;;;;;;;5.87;5.27;;;;;;;;;;4972562;28;20430;-89
2021/06/16 03:57:20;;;;;;;6.60;6.00;;;17.40;69.30;;;;;;4961980;29;20411;-91
2021/06/16 03:59:49;;;;;;;6.23;5.10;;;20.40;75.10;;;;;;4963433;28;20469;-91
2021/06/16 04:02:16;;;;;;;6.77;5.50;;;17.70;68.50;;;;;;4964355;28;20453;-92
2021/06/16 04:04:43;;;;;;;9.07;5.20;;;;;;;;;;4981002;28;20421;-91
2021/06/16 04:07:10;;;;;;;5.10;4.60;;;17.60;67.60;;;;;;4977447;28;20433;-91
2021/06/16 04:09:36;;;;;;;6.53;5.87;;;18.50;73.30;;;;;;4979602;28;20406;-89
2021/06/16 04:12:02;;;;;;;6.13;5.67;;;20.70;75.70;;;;;;4977590;28;20460;-91
2021/06/16 04:14:30;;;;;;;5.20;4.90;;;;;;;;;;4974778;28;20454;-91
2021/06/16 04:17:06;;;;;;;6.77;5.77;;;17.60;67.30;;;;;;4961143;28;20407;-91
2021/06/16 04:19:35;;;;;;;6.67;5.97;;;17.90;68.40;;;;;;4962188;29;20422;-90
2021/06/16 04:22:00;;;;;;;5.40;5.30;;;20.30;71.40;;;;;;4957530;29;20944;-91
2021/06/16 04:24:26;;;;;;;6.77;5.80;;;19.10;73.40;;;;;;4976056;28;20415;-91
2021/06/16 04:27:16;;;;;;;11.30;6.23;;;17.70;90.10;;;;;;4959219;28;20183;-89
2021/06/16 04:29:50;;;;;;;6.83;6.33;;;18.90;68.60;;;;;;4974508;28;20174;-92
2021/06/16 04:32:16;;;;;;;5.80;5.50;;;;;;;;;;4942978;29;20462;-89
2021/06/16 04:35:06;;;;;;;5.80;5.40;;;17.70;67.50;;;;;;4977168;28;20405;-92
2021/06/16 04:37:32;;;;;;;7.47;6.10;;;17.90;68.40;;;;;;4976812;28;20433;-93
2021/06/16 04:39:58;;;;;;;6.40;6.00;;;18.90;74.10;;;;;;4975404;28;20434;-88
2021/06/16 04:42:44;;;;;;;6.57;5.40;;;17.90;80.40;;;;;;5202491;23;20439;-89
2021/06/16 04:47:46;;;;;;;7.00;6.50;;;18.10;67.00;;;;;;5271641;23;20489;-91
2021/06/16 04:55:23;;;;;;;6.00;5.60;;;18.50;66.50;;;;;;4519734;23;20503;-92
2021/06/16 04:57:49;;;;;;;7.80;5.10;;;;;;;;;;5473438;23;20869;-89
2021/06/16 05:05:29;;;;;;;6.37;5.90;;;19.20;82.50;;;;;;5712780;23;20443;-90
2021/06/16 05:13:32;;;;;;;7.23;6.60;;;19.80;59.30;;;;;;5312502;23;20483;-90
2021/06/16 05:15:59;;;;;;;6.70;5.50;;;19.90;80.20;;;;;;5463399;23;21414;-89
2021/06/16 05:29:26;;;;;;;7.50;6.90;;;21.50;66.90;;;;;;5033751;23;20546;-90
2021/06/16 05:31:52;;;;;;;6.57;6.07;;;;;;;;;;5348504;23;20482;-90
2021/06/16 05:34:25;;;;;;;6.70;6.30;;;21.80;53.60;;;;;;5125762;23;20225;-92
2021/06/16 05:36:51;;;;;;;7.83;7.13;;;22.30;59.80;;;;;;5436447;23;20463;-89
2021/06/16 05:42:19;;;;;;;6.00;5.60;;;22.60;52.80;;;;;;5001577;23;20234;-91
2021/06/16 05:44:46;;;;;;;6.37;5.87;;;22.80;61.20;;;;;;5405308;23;20532;-89
2021/06/16 05:47:13;;;;;;;6.07;5.57;;;;;;;;;;5011919;23;20435;-90
2021/06/16 05:49:45;;;;;;;5.77;5.47;;;22.80;51.90;;;;;;5069628;23;20487;-92
2021/06/16 05:52:13;;;;;;;8.43;5.97;;;28.90;57.40;;;;;;4927803;29;20490;-91
2021/06/16 05:54:42;;;;;;;5.43;4.93;;;21.90;51.70;;;;;;4935626;29;20425;-90
2021/06/16 05:57:18;;;;;;;7.60;5.57;;;25.50;52.90;;;;;;4948785;29;20428;-91
2021/06/16 05:59:47;;;;;;;11.00;6.63;;;24.00;50.30;;;;;;4935207;29;20464;-91
2021/06/16 06:02:13;;;;;;;6.33;5.90;;;26.80;50.90;;;;;;4971158;23;20501;-89
2021/06/16 06:04:39;;;;;;;14.03;7.40;;;24.00;49.80;;;;;;4927965;29;20526;-88
2021/06/16 06:07:05;;;;;;;6.20;5.60;;;25.50;50.90;;;;;;4922573;29;20519;-90
2021/06/16 06:09:31;;;;;;;6.17;5.70;;;25.50;50.00;;;;;;4914606;29;20991;-90
2021/06/16 06:11:59;;;;;;;6.57;6.00;;;23.30;47.50;;;;;;4914932;29;20657;-90
2021/06/16 06:14:25;;;;;;;6.73;6.13;;;27.00;50.30;;;;;;4913405;29;20436;-88
2021/06/16 06:16:50;;;;;;;6.03;5.57;;;24.70;46.80;;;;;;4934098;29;20442;-88
2021/06/16 06:19:16;;;;;;;6.77;6.30;;;24.00;46.20;;;;;;4934252;29;20438;-90
2021/06/16 06:21:42;;;;;;;6.13;5.80;;;26.50;48.30;;;;;;4916550;29;20266;-89
2021/06/16 06:24:10;;;;;;;7.13;6.60;;;27.40;48.30;;;;;;4935286;29;20178;-91
2021/06/16 06:26:36;;;;;;;7.63;6.97;;;25.40;49.90;;;;;;4936111;29;20167;-89
2021/06/16 06:29:03;;;;;;;8.83;5.80;;;25.50;46.40;;;;;;4938904;29;20407;-92
2021/06/16 06:31:29;;;;;;;5.97;5.50;;;24.50;44.40;;;;;;4936855;29;20581;-92
2021/06/16 06:33:55;;;;;;;7.30;5.93;;;24.90;46.30;;;;;;4920536;29;20435;-90
2021/06/16 06:36:21;;;;;;;5.80;5.50;;;29.10;46.60;;;;;;4922416;29;20768;-91
2021/06/16 06:38:48;;;;;;;9.40;8.40;;;28.90;46.90;;;;;;4941001;29;20415;-92
2021/06/16 06:41:14;;;;;;;5.97;5.63;;;30.50;46.40;;;;;;4943591;29;20486;-92
2021/06/16 06:43:40;;;;;;;7.67;7.17;;;27.30;44.50;;;;;;4940169;29;20938;-92
2021/06/16 06:46:08;;;;;;;7.17;6.57;;;27.30;45.40;;;;;;4923558;29;20521;-92
2021/06/16 06:48:34;;;;;;;6.60;6.03;;;27.80;47.10;;;;;;4923644;29;20599;-92
2021/06/16 06:51:00;;;;;;;6.50;6.00;;;28.60;45.80;;;;;;4941633;29;20423;-92
2021/06/16 06:53:28;;;;;;;6.40;5.90;;;27.50;45.40;;;;;;4942433;29;20546;-91
2021/06/16 06:55:55;;;;;;;7.13;6.40;;;26.50;43.50;;;;;;4925895;29;20168;-94
2021/06/16 06:58:20;;;;;;;7.77;7.00;;;27.00;43.60;;;;;;4925277;29;20903;-92
2021/06/16 07:00:46;;;;;;;8.70;6.23;;;27.00;43.90;;;;;;5083545;23;20481;-94
2021/06/16 07:05:53;;;;;;;8.03;6.60;;;27.60;42.80;;;;;;4973445;23;20468;-90
2021/06/16 07:08:19;;;;;;;7.33;6.53;;;29.40;46.80;;;;;;4940550;29;20404;-91
2021/06/16 07:10:44;;;;;;;6.33;5.97;;;27.80;45.70;;;;;;4929243;29;20438;-91
2021/06/16 07:13:35;;;;;;;6.37;6.10;;;28.60;44.50;;;;;;4950701;29;20215;-91
2021/06/16 07:16:11;;;;;;;6.80;6.40;;;28.50;45.20;;;;;;4921435;29;20199;-92
2021/06/16 07:18:37;;;;;;;7.10;6.50;;;28.00;44.90;;;;;;4937705;29;20419;-92
2021/06/16 07:21:03;;;;;;;6.23;5.63;;;28.60;43.70;;;;;;4951460;29;20420;-89
2021/06/16 07:23:29;;;;;;;5.40;5.20;;;29.30;43.50;;;;;;4935170;29;20418;-90
2021/06/16 07:25:55;;;;;;;6.60;6.10;;;31.90;45.30;;;;;;4935407;29;20464;-90
2021/06/16 07:28:26;;;;;;;5.70;5.30;;;29.90;42.30;;;;;;4934427;29;20203;-91
2021/06/16 07:31:09;;;;;;;6.50;6.00;;;31.70;40.30;;;;;;4934629;29;20673;-92
2021/06/16 07:33:56;;;;;;;12.70;7.20;;;29.10;38.70;;;;;;4931891;29;20471;-92
2021/06/16 07:36:27;;;;;;;7.20;6.50;;;30.30;38.40;;;;;;4934317;29;20419;-92
2021/06/16 07:38:54;;;;;;;7.23;6.70;;;34.20;41.90;;;;;;4933207;29;20475;-91
2021/06/16 07:41:19;;;;;;;6.63;6.13;;;29.80;40.30;;;;;;4933930;29;20487;-90
2021/06/16 07:43:45;;;;;;;5.33;5.00;;;30.00;41.50;;;;;;4931606;29;20412;-93
2021/06/16 07:46:17;;;;;;;6.77;6.27;;;31.50;42.20;;;;;;4933214;29;20184;-92
2021/06/16 07:48:46;;;;;;;6.37;5.83;;;31.10;38.70;;;;;;4926284;29;20428;-91
2021/06/16 07:51:15;;;;;;;6.87;6.17;;;29.90;41.10;;;;;;4929380;29;20447;-93
2021/06/16 07:53:41;;;;;;;5.67;5.30;;;29.70;39.20;;;;;;4928212;29;20502;-91
2021/06/16 07:56:06;;;;;;;16.13;5.50;;;32.50;42.50;;;;;;4928476;29;20432;-90
2021/06/16 07:58:32;;;;;;;5.10;4.80;;;30.20;39.90;;;;;;4930173;29;20180;-90
2021/06/16 08:00:59;;;;;;;5.60;5.10;;;33.50;40.50;;;;;;4927805;29;20231;-91
2021/06/16 08:03:24;;;;;;;5.83;5.53;;;31.70;38.90;;;;;;4930034;29;20216;-89
2021/06/16 08:05:51;;;;;;;5.50;5.20;;;31.10;40.60;;;;;;4943856;29;20493;-92
2021/06/16 08:08:17;;;;;;;5.37;5.07;;;32.50;40.40;;;;;;4928075;29;20174;-94
2021/06/16 08:10:43;;;;;;;4.97;4.63;;;31.00;40.20;;;;;;4924831;29;20423;-92
2021/06/16 08:13:09;;;;;;;6.37;5.87;;;31.30;38.60;;;;;;4941904;29;20531;-93
2021/06/16 08:15:38;;;;;;;12.17;9.53;;;31.80;38.60;;;;;;4941106;29;20499;-92
2021/06/16 08:18:04;;;;;;;32.17;24.87;;;32.30;38.40;;;;;;4926266;29;20207;-93
2021/06/16 08:20:30;;;;;;;6.97;6.33;;;31.50;38.70;;;;;;4926451;29;20449;-92
2021/06/16 08:22:58;;;;;;;12.10;11.10;;;33.20;39.50;;;;;;4949818;29;20176;-91
2021/06/16 08:25:25;;;;;;;6.03;5.60;;;33.00;40.80;;;;;;4931568;29;20179;-91
2021/06/16 08:27:50;;;;;;;6.77;6.13;;;33.20;40.50;;;;;;4927355;29;20431;-93
2021/06/16 08:30:17;;;;;;;6.13;5.83;;;33.50;37.80;;;;;;4930548;29;20493;-92
2021/06/16 08:32:50;;;;;;;6.63;6.03;;;33.60;35.80;;;;;;4249637;29;10000603;-93
2021/06/16 08:35:16;;;;;;;6.23;5.93;;;35.50;36.80;;;;;;4930623;29;20981;-90
2021/06/16 08:37:42;;;;;;;6.07;5.83;;;33.90;36.50;;;;;;4925904;29;20534;-92
2021/06/16 08:40:09;;;;;;;5.17;4.97;;;33.60;34.90;;;;;;4924528;29;20207;-92
2021/06/16 08:42:35;;;;;;;5.97;5.57;;;34.30;36.20;;;;;;4942215;29;20510;-90
2021/06/16 08:45:02;;;;;;;5.53;4.97;;;32.90;35.40;;;;;;4942684;29;20419;-91
2021/06/16 08:47:29;;;;;;;6.50;6.00;;;34.70;33.60;;;;;;4944125;29;20415;-90
2021/06/16 08:49:55;;;;;;;6.03;5.83;;;37.90;36.60;;;;;;4927861;29;20412;-90
2021/06/16 08:52:21;;;;;;;5.67;5.23;;;35.70;35.80;;;;;;4925180;29;20588;-91
2021/06/16 08:54:47;;;;;;;6.53;6.10;;;36.00;36.10;;;;;;4943533;29;20423;-88
2021/06/16 08:57:18;;;;;;;6.30;5.90;;;35.50;33.40;;;;;;4927874;29;20431;-92
2021/06/16 08:59:47;;;;;;;5.50;5.00;;;37.20;34.50;;;;;;4928130;29;20427;-90
2021/06/16 09:02:13;;;;;;;22.60;10.73;;;35.80;34.20;;;;;;4930189;29;20506;-90
2021/06/16 09:04:51;;;;;;;7.00;6.60;;;37.50;34.60;;;;;;4929335;29;20487;-88
2021/06/16 09:07:25;;;;;;;20.73;10.33;;;36.80;32.00;;;;;;4934732;29;20419;-89
2021/06/16 09:10:26;;;;;;;5.67;5.37;;;37.20;32.20;;;;;;4932790;29;20506;-87
2021/06/16 09:12:59;;;;;;;5.80;5.60;;;36.40;31.70;;;;;;4927685;29;20629;-92
2021/06/16 09:15:30;;;;;;;6.70;6.23;;;37.20;32.90;;;;;;4930515;29;20412;-91
2021/06/16 09:18:04;;;;;;;6.33;5.93;;;36.40;33.00;;;;;;4946792;29;20965;-90
2021/06/16 09:20:36;;;;;;;8.30;5.57;;;36.10;32.10;;;;;;4933012;29;20481;-91
2021/06/16 09:23:12;;;;;;;6.77;6.20;;;36.00;32.00;;;;;;4933879;29;20419;-91
2021/06/16 09:25:38;;;;;;;6.93;6.33;;;34.80;31.50;;;;;;4934497;29;20422;-90
2021/06/16 09:28:04;;;;;;;6.57;6.03;;;36.60;32.90;;;;;;4931321;29;20443;-92
2021/06/16 09:30:41;;;;;;;6.87;6.10;;;34.60;31.30;;;;;;4929851;29;20439;-91
2021/06/16 09:33:17;;;;;;;15.10;7.33;;;37.60;32.80;;;;;;4914709;29;21045;-90
2021/06/16 09:35:48;;;;;;;7.03;6.73;;;38.10;35.30;;;;;;4942666;29;20439;-89
2021/06/16 09:38:31;;;;;;;7.77;7.30;;;38.90;32.50;;;;;;4576968;29;9999998;-91
2021/06/16 09:40:58;;;;;;;15.87;14.30;;;37.40;32.20;;;;;;4941035;29;20178;-92
2021/06/16 09:43:35;;;;;;;8.80;8.30;;;38.10;31.40;;;;;;4930503;29;20431;-90
2021/06/16 09:46:30;;;;;;;7.20;6.73;;;38.00;31.70;;;;;;4938438;28;20834;-92
2021/06/16 09:49:11;;;;;;;11.23;10.17;;;37.00;31.60;;;;;;4918105;29;20446;-92
2021/06/16 09:51:43;;;;;;;7.03;6.73;;;36.80;33.20;;;;;;4954672;28;20424;-90
2021/06/16 09:54:13;;;;;;;6.53;6.23;;;37.00;32.20;;;;;;4921772;29;20435;-92
2021/06/16 09:56:59;;;;;;;7.23;6.83;;;38.00;35.30;;;;;;4933941;29;20551;-91
2021/06/16 09:59:39;;;;;;;7.37;6.97;;;40.50;33.60;;;;;;4953366;28;20446;-92
2021/06/16 10:02:28;;;;;;;7.20;6.57;;;38.10;32.00;;;;;;4938377;29;20416;-91
2021/06/16 10:05:03;;;;;;;7.53;7.07;;;39.80;32.90;;;;;;4947028;28;20503;-92
2021/06/16 10:07:48;;;;;;;7.10;6.70;;;39.70;33.10;;;;;;4930251;29;20436;-93
2021/06/16 10:10:15;;;;;;;7.90;7.30;;;38.10;32.00;;;;;;4927503;29;20436;-90
2021/06/16 10:12:51;;;;;;;6.70;6.40;;;38.50;32.40;;;;;;4926311;29;20452;-93
2021/06/16 10:15:22;;;;;;;8.00;7.50;;;37.80;31.10;;;;;;4934568;29;20442;-91
2021/06/16 10:18:07;;;;;;;6.40;6.20;;;38.70;32.50;;;;;;4928268;29;20840;-90
2021/06/16 10:20:35;;;;;;;10.93;10.07;;;39.60;32.00;;;;;;4933125;29;20411;-94
2021/06/16 10:23:03;;;;;;;8.07;7.40;;;38.70;30.50;;;;;;5027734;23;20494;-91
2021/06/16 10:25:28;;;;;;;7.10;6.40;;;39.20;33.60;;;;;;4930606;29;20435;-91
2021/06/16 10:28:03;;;;;;;8.40;7.63;;;40.00;31.60;;;;;;4944980;29;20521;-92
2021/06/16 10:30:40;;;;;;;8.00;7.60;;;39.50;30.40;;;;;;4944122;29;20171;-95
2021/06/16 10:33:29;;;;;;;8.37;7.83;;;38.80;31.10;;;;;;4941996;29;20533;-94
2021/06/16 10:36:16;;;;;;;12.27;9.27;;;39.30;31.20;;;;;;4932244;29;20443;-89
2021/06/16 10:39:02;;;;;;;7.97;7.50;;;40.00;30.90;;;;;;4945070;29;20478;-89
2021/06/16 10:41:37;;;;;;;8.43;7.80;;;40.60;30.70;;;;;;4923016;29;20415;-93
2021/06/16 10:44:14;;;;;;;8.07;7.33;;;40.20;30.60;;;;;;4927249;29;20422;-90
2021/06/16 10:47:18;;;;;;;6.93;6.53;;;38.90;29.00;;;;;;4924710;29;20552;-90
2021/06/16 10:49:50;;;;;;;7.07;6.67;;;41.60;33.10;;;;;;4839469;29;20455;-95
2021/06/16 10:52:22;;;;;;;7.33;7.10;;;40.30;30.10;;;;;;4936322;29;20498;-91
2021/06/16 10:55:02;;;;;;;7.03;6.70;;;40.80;30.50;;;;;;4934080;29;20880;-89
2021/06/16 10:57:33;;;;;;;7.67;7.23;;;40.80;29.80;;;;;;4940874;29;20450;-93
2021/06/16 11:00:23;;;;;;;7.03;6.80;;;41.10;30.00;;;;;;4957348;29;20422;-93
2021/06/16 11:02:53;;;;;;;7.30;6.63;;;41.70;29.60;;;;;;4935055;29;20422;-94
2021/06/16 11:05:30;;;;;;;8.50;6.53;;;40.90;30.00;;;;;;4934194;29;20415;-92
2021/06/16 11:07:56;;;;;;;7.87;7.47;;;41.40;30.00;;;;;;4932925;29;20423;-91
2021/06/16 11:10:26;;;;;;;7.20;6.80;;;39.00;31.60;;;;;;4946169;29;20427;-93
2021/06/16 11:12:54;;;;;;;9.13;8.53;;;40.50;31.10;;;;;;4929140;29;20215;-94
2021/06/16 11:15:25;;;;;;;8.20;7.70;;;40.70;32.00;;;;;;4927728;29;20509;-93
2021/06/16 11:17:59;;;;;;;8.40;7.77;;;41.30;32.70;;;;;;4929941;29;20423;-91
2021/06/16 11:20:37;;;;;;;21.23;16.00;;;;;;;;;;4927660;29;20486;-92
2021/06/16 11:23:04;;;;;;;6.93;6.73;;;;;;;;;;4931107;29;20541;-93
2021/06/16 11:25:32;;;;;;;7.37;7.07;;;;;;;;;;4927672;29;20618;-93
2021/06/16 11:27:58;;;;;;;6.97;6.77;;;;;;;;;;4928386;29;20423;-94
2021/06/16 11:30:40;;;;;;;12.73;11.60;;;;;;;;;;4928725;29;20418;-94
2021/06/16 11:33:21;;;;;;;6.47;6.27;;;;;;;;;;4947424;29;20466;-91
2021/06/16 11:36:00;;;;;;;6.93;6.63;;;;;;;;;;4947286;29;20426;-93
2021/06/16 11:38:31;;;;;;;6.37;6.23;;;;;;;;;;4931305;29;20439;-92
2021/06/16 11:40:58;;;;;;;12.10;6.00;;;;;;;;;;4930466;29;20415;-94
2021/06/16 11:43:33;;;;;;;6.03;5.83;;;;;;;;;;4930124;29;20938;-94
2021/06/16 11:46:03;;;;;;;6.13;6.00;;;;;;;;;;4933996;29;20422;-91
2021/06/16 11:48:32;;;;;;;6.43;6.00;;;;;;;;;;4935400;29;20408;-93
2021/06/16 11:51:06;;;;;;;5.87;5.73;;;;;;;;;;4931380;29;20498;-90
2021/06/16 11:53:33;;;;;;;5.50;5.30;;;;;;;;;;4926237;29;20472;-91
2021/06/16 11:56:06;;;;;;;5.87;5.57;;;;;;;;;;4924023;29;20408;-90
2021/06/16 11:58:37;;;;;;;5.27;4.97;;;;;;;;;;4924515;29;20430;-90
2021/06/16 12:01:07;;;;;;;5.50;5.30;;;;;;;;;;4961345;29;20418;-91
2021/06/16 12:03:33;;;;;;;5.47;5.17;;;;;;;;;;4965476;29;20430;-92
2021/06/16 12:06:10;;;;;;;;;;;;;;;;;;;;;
2021/06/16 12:08:37;;;;;;;6.17;5.93;;;;;;;;;;4969804;29;20441;-91
2021/06/16 12:11:27;;;;;;;5.60;5.40;;;;;;;;;;4953395;29;20477;-93
2021/06/16 12:13:57;;;;;;;5.40;5.10;;;;;;;;;;4936376;29;20513;-92
2021/06/16 12:16:29;;;;;;;5.67;5.47;;;;;;;;;;4950337;29;20453;-93
2021/06/16 12:19:20;;;;;;;5.13;4.97;;;;;;;;;;4968746;29;20425;-91
2021/06/16 12:21:52;;;;;;;5.80;5.40;;;;;;;;;;4952338;28;20494;-94
2021/06/16 12:24:33;;;;;;;4.50;4.40;;;;;;;;;;4953865;29;20941;-91
2021/06/16 12:27:14;;;;;;;6.03;5.63;;;;;;;;;;4971153;29;20407;-91
2021/06/16 12:30:16;;;;;;;5.07;4.87;;;;;;;;;;4973539;29;20418;-90
2021/06/16 12:32:45;;;;;;;6.03;5.83;;;;;;;;;;4921839;29;20474;-90
2021/06/16 12:35:40;;;;;;;6.73;6.50;;;;;;;;;;4937069;29;20419;-92
2021/06/16 12:38:12;;;;;;;5.27;5.17;;;;;;;;;;4932889;29;20476;-91
2021/06/16 12:40:39;;;;;;;6.63;6.10;;;;;;;;;;4936227;29;20420;-89
2021/06/16 12:43:07;;;;;;;5.33;5.13;;;;;;;;;;4935442;29;20456;-91
2021/06/16 12:45:42;;;;;;;4.63;4.53;;;;;;;;;;4935728;29;20420;-90
2021/06/16 12:48:13;;;;;;;5.67;5.30;;;;;;;;;;4935080;29;20411;-91
2021/06/16 12:53:44;;;;;;;5.87;5.63;;;;;;;;;;4935484;29;20582;-90
2021/06/16 12:56:29;;;;;;;7.50;7.00;;;;;;;;;;4933423;29;20408;-94
2021/06/16 12:58:55;;;;;;;5.60;5.30;;;42.10;27.20;;;;;;4930107;29;20435;-93
2021/06/16 13:01:31;;;;;;;5.77;5.50;;;42.50;27.50;;;;;;4931533;29;20416;-93
2021/06/16 13:04:00;;;;;;;4.97;4.83;;;43.00;27.30;;;;;;4933605;29;20431;-94
2021/06/16 13:06:27;;;;;;;5.03;4.73;;;42.80;27.40;;;;;;4914581;29;20561;-92
2021/06/16 13:09:01;;;;;;;6.50;6.30;;;42.30;27.30;;;;;;4913479;29;20516;-89
2021/06/16 13:11:36;;;;;;;5.70;5.10;;;41.80;27.50;;;;;;4930579;29;20456;-92
2021/06/16 13:14:22;;;;;;;5.10;4.90;;;41.10;27.80;;;;;;4913287;29;20440;-92
2021/06/16 13:17:27;;;;;;;5.90;5.70;;;40.30;28.50;;;;;;4914571;29;20436;-93
2021/06/16 13:20:00;;;;;;;5.07;4.97;;;39.40;28.50;;;;;;4914322;29;20488;-94
2021/06/16 13:22:34;;;;;;;6.87;6.37;;;38.60;28.80;;;;;;4896611;29;20583;-94
2021/06/16 13:25:01;;;;;;;5.67;5.47;;;39.30;29.10;;;;;;4910558;29;20482;-93
2021/06/16 13:27:28;;;;;;;6.60;6.23;;;39.40;29.00;;;;;;4925971;29;20422;-91
2021/06/16 13:30:04;;;;;;;6.30;5.97;;;39.50;28.90;;;;;;4911166;29;20428;-94
2021/06/16 13:32:41;;;;;;;5.60;5.10;;;39.60;29.10;;;;;;4925960;29;21004;-95
2021/06/16 13:35:17;;;;;;;6.20;6.00;;;39.80;28.60;;;;;;4915139;29;20426;-91
2021/06/16 13:37:44;;;;;;;5.53;5.33;;;40.10;28.90;;;;;;4926733;29;20460;-95
2021/06/16 13:40:17;;;;;;;6.57;6.17;;;40.50;28.40;;;;;;4927345;29;20432;-93
2021/06/16 13:42:50;;;;;;;5.23;5.13;;;41.00;28.60;;;;;;4908273;29;20796;-92
2021/06/16 13:45:17;;;;;;;6.10;5.80;;;41.20;28.00;;;;;;4912732;29;20484;-93
2021/06/16 13:47:45;;;;;;;6.30;6.10;;;40.50;28.50;;;;;;4914119;29;20413;-93
2021/06/16 13:50:13;;;;;;;6.80;6.40;;;39.00;29.20;;;;;;4914120;29;20467;-91
2021/06/16 13:52:38;;;;;;;5.97;5.77;;;38.60;29.30;;;;;;4911346;29;20486;-93
2021/06/16 13:55:08;;;;;;;6.43;6.10;;;38.10;29.90;;;;;;4934207;29;20439;-91
2021/06/16 13:57:36;;;;;;;5.80;5.53;;;37.90;29.50;;;;;;4930336;29;20491;-91
2021/06/16 14:00:06;;;;;;;7.17;6.83;;;38.20;29.90;;;;;;4943260;29;20419;-94
2021/06/16 14:02:34;;;;;;;6.17;5.77;;;38.80;29.70;;;;;;4941092;29;20439;-88
2021/06/16 14:05:03;;;;;;;6.40;6.20;;;39.10;29.20;;;;;;4935092;29;20529;-91
2021/06/16 14:07:30;;;;;;;7.20;6.90;;;38.10;29.40;;;;;;4915542;29;20425;-93
2021/06/16 14:09:56;;;;;;;7.00;6.37;;;37.60;30.50;;;;;;4924754;29;20487;-86
2021/06/16 14:12:25;;;;;;;6.83;6.60;;;37.30;31.00;;;;;;4946931;29;20475;-94
2021/06/16 14:14:54;;;;;;;6.37;6.10;;;36.90;30.80;;;;;;4930133;29;20429;-92
2021/06/16 14:17:20;;;;;;;6.13;5.93;;;36.90;31.60;;;;;;4948205;29;20443;-94
2021/06/16 14:19:46;;;;;;;7.37;6.93;;;37.00;32.60;;;;;;4946402;29;20431;-94
2021/06/16 14:22:12;;;;;;;6.70;6.10;;;37.50;32.30;;;;;;4927938;29;20215;-90
2021/06/16 14:24:40;;;;;;;7.40;7.10;;;36.90;32.20;;;;;;4930120;29;20423;-91
2021/06/16 14:27:06;;;;;;;6.90;6.60;;;36.60;32.40;;;;;;4950929;29;20417;-93
2021/06/16 14:29:42;;;;;;;6.90;6.60;;;36.00;32.70;;;;;;4931096;29;20442;-92
2021/06/16 14:32:11;;;;;;;7.43;6.93;;;35.50;33.10;;;;;;4928689;29;20638;-92
2021/06/16 14:34:39;;;;;;;7.10;6.70;;;36.30;33.60;;;;;;4947201;29;20427;-95
2021/06/16 14:37:11;;;;;;;5.97;5.63;;;36.60;33.30;;;;;;4932697;29;20419;-91
2021/06/16 14:39:37;;;;;;;7.50;6.93;;;35.90;32.40;;;;;;4916816;29;20431;-93
2021/06/16 14:42:03;;;;;;;7.43;7.13;;;35.40;33.40;;;;;;4930487;29;20501;-94
2021/06/16 14:44:36;;;;;;;7.60;7.27;;;36.40;32.50;;;;;;4929435;29;20235;-92
2021/06/16 14:47:03;;;;;;;7.33;6.83;;;37.00;32.00;;;;;;4930941;29;20453;-91
2021/06/16 14:49:31;;;;;;;6.43;6.13;;;37.70;31.20;;;;;;4948938;29;20433;-92
2021/06/16 14:52:00;;;;;;;6.17;5.97;;;37.80;30.40;;;;;;4930806;29;20458;-92
2021/06/16 14:54:28;;;;;;;7.33;6.80;;;37.20;30.90;;;;;;4916249;29;20434;-92
2021/06/16 14:56:54;;;;;;;6.83;6.43;;;37.10;31.90;;;;;;4918012;29;20411;-93
2021/06/16 14:59:26;;;;;;;7.50;6.90;;;37.00;32.50;;;;;;4941692;29;20530;-90
2021/06/16 15:01:53;;;;;;;7.20;7.00;;;35.90;32.90;;;;;;4929002;29;20172;-91
2021/06/16 15:04:26;;;;;;;7.63;7.33;;;35.90;32.40;;;;;;4960833;29;20430;-92